Time;durP1;ratioP1;P1;durP2;ratioP2;P2;SDS_P1;SDS_P2;PMS_P1;PMS_P2;Temp;Humidity;BMP_temperature;BMP_pressure;BME280_temperature;BME280_humidity;BME280_pressure;Samples;Min_cycle;Max_cycle;Signal;HPM_P1;HPM_P2
2021/11/02 08:45:22;;;;;;;2.23;1.70;;;;;;;12.42;84.33;97521.09;5124795;27;40412;-78
2021/11/02 08:47:56;;;;;;;1.67;1.57;;;;;;;12.22;83.41;97514.94;5108340;27;43977;-78
2021/11/02 08:50:24;;;;;;;1.70;1.60;;;;;;;11.97;82.80;97518.13;5126749;27;43169;-78
2021/11/02 08:52:54;;;;;;;1.67;1.57;;;;;;;11.77;83.37;97499.50;5128138;27;39907;-78
2021/11/02 08:55:22;;;;;;;3.80;1.90;;;;;;;11.68;83.56;97492.34;5132459;27;41576;-78
2021/11/02 08:57:52;;;;;;;2.80;1.77;;;;;;;11.76;81.93;97507.59;5147859;27;43767;-78
2021/11/02 09:00:21;;;;;;;1.83;1.43;;;;;;;11.93;82.50;97520.22;5146878;27;42743;-78
2021/11/02 09:02:51;;;;;;;1.97;1.83;;;;;;;13.00;80.15;97513.03;5146439;27;39861;-78
2021/11/02 09:05:23;;;;;;;4.00;1.93;;;;;;;15.65;71.14;97522.19;5147733;27;43020;-78
2021/11/02 09:07:55;;;;;;;2.70;1.47;;;;;;;17.19;64.79;97535.81;5146441;27;42830;-79
2021/11/02 09:10:24;;;;;;;1.97;1.40;;;;;;;18.10;60.79;97544.25;5147235;27;40799;-78
2021/11/02 09:12:53;;;;;;;1.20;1.10;;;;;;;17.54;59.97;97537.25;5181860;27;39940;-79
2021/11/02 09:15:25;;;;;;;1.67;1.20;;;;;;;16.65;62.85;97530.16;5145747;27;41857;-78
2021/11/02 09:17:56;;;;;;;1.50;1.40;;;;;;;16.07;66.02;97512.31;5146243;27;42656;-78
2021/11/02 09:20:24;;;;;;;2.13;1.43;;;;;;;15.73;66.65;97516.88;5147232;27;43127;-78
2021/11/02 09:22:53;;;;;;;1.63;1.50;;;;;;;15.46;66.69;97516.06;5129523;27;38986;-78
2021/11/02 09:25:21;;;;;;;1.10;1.00;;;;;;;15.11;64.28;97534.84;5146062;27;40870;-78
2021/11/02 09:27:51;;;;;;;0.90;0.90;;;;;;;14.86;64.14;97533.00;5147013;27;41952;-78
2021/11/02 09:30:21;;;;;;;1.40;1.03;;;;;;;14.84;64.95;97527.81;5146408;27;40919;-78
2021/11/02 09:32:52;;;;;;;0.97;0.97;;;;;;;15.03;62.89;97538.31;5129249;27;38816;-78
2021/11/02 09:35:22;;;;;;;2.20;1.07;;;;;;;15.12;61.51;97541.03;5124997;27;40818;-78
2021/11/02 09:37:59;;;;;;;1.37;1.00;;;;;;;15.05;62.15;97533.66;5104779;28;41429;-79
2021/11/02 09:40:53;;;;;;;1.13;1.03;;;;;;;15.57;61.12;97540.84;5128929;27;41222;-78
2021/11/02 09:43:53;;;;;;;1.10;1.10;;;;;;;15.79;59.35;97548.28;5130272;27;39212;-79
2021/11/02 09:46:50;;;;;;;1.67;1.27;;;;;;;15.94;58.85;97549.34;5114555;27;40692;-78
2021/11/02 09:49:50;;;;;;;1.57;1.27;;;;;;;16.58;58.25;97542.47;5099331;27;43486;-79
2021/11/02 09:52:45;;;;;;;0.90;0.90;;;;;;;16.97;57.25;97552.56;5132000;27;40973;-78
2021/11/02 09:55:49;;;;;;;1.60;0.93;;;;;;;17.67;55.70;97544.78;5132831;27;40874;-79
2021/11/02 09:58:42;;;;;;;1.03;0.93;;;;;;;17.31;54.60;97542.47;5132000;27;41501;-78
2021/11/02 10:01:30;;;;;;;2.67;1.00;;;;;;;16.93;54.70;97553.91;5131352;27;41553;-78
2021/11/02 10:04:34;;;;;;;1.47;1.00;;;;;;;16.82;54.73;97561.22;5130570;27;41142;-79
2021/11/02 10:07:41;;;;;;;1.47;0.93;;;;;;;18.04;52.15;97563.72;5113425;27;38941;-79
2021/11/02 10:10:15;;;;;;;2.40;1.10;;;;;;;18.34;50.24;97569.25;5111802;27;42018;-78
2021/11/02 10:12:55;;;;;;;0.90;0.90;;;;;;;17.68;52.16;97554.50;5132093;27;43764;-78
2021/11/02 10:15:41;;;;;;;0.93;0.83;;;;;;;17.63;51.16;97557.69;5114817;27;41262;-78
2021/11/02 10:18:46;;;;;;;3.17;1.03;;;;;;;17.12;52.79;97542.84;5114312;27;39931;-79
2021/11/02 10:21:38;;;;;;;1.10;1.00;;;;;;;18.76;51.33;97537.53;5130408;27;41754;-79
2021/11/02 10:24:35;;;;;;;0.70;0.70;;;;;;;22.21;43.47;97598.66;5114550;27;41486;-79
2021/11/02 10:27:30;;;;;;;0.80;0.60;;;;;;;23.43;42.84;97588.59;5131680;27;42285;-79
2021/11/02 10:30:19;;;;;;;1.50;0.70;;;;;;;24.54;39.21;97565.09;5132598;27;39935;-79
2021/11/02 10:32:48;;;;;;;1.47;0.67;;;;;;;26.56;36.52;97618.09;5114002;27;40893;-80
2021/11/02 10:35:24;;;;;;;0.70;0.70;;;;;;;27.33;34.70;97628.13;5131296;27;42809;-80
2021/11/02 10:38:02;;;;;;;0.93;0.80;;;;;;;26.69;33.43;97632.34;5132122;27;42392;-79
2021/11/02 10:40:39;;;;;;;0.50;0.50;;;;;;;24.90;36.18;97612.38;5113639;27;39314;-78
2021/11/02 10:43:47;;;;;;;1.70;0.50;;;;;;;23.07;37.01;97616.00;5114863;27;41508;-79
2021/11/02 10:46:16;;;;;;;1.17;1.00;;;;;;;21.40;39.75;97589.38;5111210;28;43115;-77
2021/11/02 10:48:47;;;;;;;0.73;0.73;;;;;;;20.53;40.82;97584.16;5110467;28;40697;-79
2021/11/02 10:51:40;;;;;;;2.83;0.80;;;;;;;20.39;41.81;97569.75;5121327;27;39965;-78
2021/11/02 10:54:47;;;;;;;1.07;0.60;;;;;;;20.53;42.70;97564.50;5117244;27;42704;-78
2021/11/02 10:57:20;;;;;;;1.03;0.70;;;;;;;21.57;41.10;97569.22;5130207;27;41859;-78
2021/11/02 10:59:49;;;;;;;0.53;0.53;;;;;;;23.44;39.91;97574.06;5131448;27;42908;-78
2021/11/02 11:02:26;;;;;;;0.60;0.60;;;;;;;24.35;39.01;97571.44;5131182;27;40573;-78
2021/11/02 11:04:56;;;;;;;1.80;0.60;;;;;;;24.84;37.25;97580.78;5132387;27;42657;-78
2021/11/02 11:07:23;;;;;;;0.70;0.70;;;;;;;24.06;37.66;97566.50;5129539;27;43725;-79
2021/11/02 11:09:53;;;;;;;0.70;0.67;;;;;;;23.62;37.14;97582.38;5113795;27;42101;-79
2021/11/02 11:12:23;;;;;;;0.93;0.57;;;;;;;22.67;37.40;97587.22;5113412;27;39837;-78
2021/11/02 11:14:55;;;;;;;2.00;0.80;;;;;;;21.84;38.93;97576.44;5131151;27;40642;-78
2021/11/02 11:17:37;;;;;;;0.73;0.70;;;;;;;21.43;39.66;97562.06;5131614;27;42695;-78
2021/11/02 11:20:11;;;;;;;0.77;0.77;;;;;;;21.56;38.55;97567.53;5130890;27;42824;-79
2021/11/02 11:22:41;;;;;;;0.43;0.43;;;;;;;21.78;39.79;97550.28;5130529;27;40257;-79
2021/11/02 11:25:12;;;;;;;0.90;0.50;;;;;;;22.06;39.21;97561.03;5131127;27;41673;-79
2021/11/02 11:27:48;;;;;;;0.57;0.57;;;;;;;23.68;37.24;97552.88;5130466;27;42834;-78
2021/11/02 11:30:19;;;;;;;0.60;0.60;;;;;;;24.55;33.44;97558.63;5113142;27;42286;-79
2021/11/02 11:32:49;;;;;;;0.57;0.57;;;;;;;24.32;34.83;97571.84;5130652;27;39013;-78
2021/11/02 11:35:17;;;;;;;0.63;0.50;;;;;;;23.72;34.18;97590.09;5130706;27;40727;-78
2021/11/02 11:37:46;;;;;;;0.50;0.43;;;;;;;24.16;34.29;97589.34;5130771;27;41720;-78
2021/11/02 11:40:18;;;;;;;0.60;0.60;;;;;;;25.28;33.07;97591.53;5130316;27;41073;-79
2021/11/02 11:42:47;;;;;;;0.43;0.43;;;;;;;26.94;30.72;97585.25;5130633;27;40780;-79
2021/11/02 11:45:19;;;;;;;0.60;0.60;;;;;;;27.69;30.46;97602.72;5112432;27;41729;-79
2021/11/02 11:48:03;;;;;;;0.60;0.60;;;;;;;27.24;31.39;97594.19;5131601;27;43786;-78
2021/11/02 11:50:32;;;;;;;0.67;0.60;;;;;;;25.76;32.08;97585.53;5129287;27;42180;-78
2021/11/02 11:53:02;;;;;;;0.83;0.80;;;;;;;24.48;33.69;97582.19;5113144;27;39065;-78
2021/11/02 11:55:31;;;;;;;0.60;0.40;;;;;;;23.89;33.93;97572.34;5130725;27;41656;-79
2021/11/02 11:58:14;;;;;;;0.33;0.33;;;;;;;23.62;34.02;97565.31;5144415;27;42770;-78
2021/11/02 12:00:44;;;;;;;0.67;0.60;;;;;;;23.22;35.14;97557.25;5110412;28;42136;-79
2021/11/02 12:03:43;;;;;;;0.43;0.43;;;;;;;22.51;36.09;97548.75;5101361;27;39663;-79
2021/11/02 12:06:18;;;;;;;0.50;0.50;;;;;;;22.44;36.96;97545.22;5112573;27;40734;-79
2021/11/02 12:08:53;;;;;;;0.77;0.50;;;;;;;23.43;35.32;97539.13;5113201;27;41822;-78
2021/11/02 12:11:23;;;;;;;0.70;0.67;;;;;;;25.51;33.18;97544.00;5129573;27;43208;-78
2021/11/02 12:13:54;;;;;;;0.67;0.60;;;;;;;27.02;30.89;97572.16;5112330;27;40132;-78
2021/11/02 12:16:34;;;;;;;0.80;0.80;;;;;;;26.37;30.12;97582.81;5131242;27;42376;-78
2021/11/02 12:19:06;;;;;;;0.67;0.50;;;;;;;25.20;32.39;97553.06;5112690;27;41973;-79
2021/11/02 12:21:37;;;;;;;0.30;0.30;;;;;;;24.15;33.47;97549.81;5128472;27;43067;-79
2021/11/02 12:24:06;;;;;;;0.30;0.30;;;;;;;23.18;34.69;97531.66;5112304;27;39036;-79
2021/11/02 12:26:45;;;;;;;0.50;0.50;;;;;;;22.55;36.05;97525.75;5109189;27;41889;-79
2021/11/02 12:29:21;;;;;;;0.67;0.43;;;;;;;21.91;36.17;97519.03;5129569;27;42781;-81
2021/11/02 12:31:56;;;;;;;1.10;0.40;;;;;;;21.24;36.98;97504.34;5126172;27;42234;-81
2021/11/02 12:34:27;;;;;;;1.30;0.40;;;;;;;20.93;37.88;97518.13;5112095;27;40095;-80
2021/11/02 12:36:56;;;;;;;1.27;0.53;;;;;;;20.49;38.92;97510.28;5127998;27;40830;-78
2021/11/02 12:39:27;;;;;;;0.80;0.53;;;;;;;20.07;39.51;97506.44;5128132;27;44440;-78
2021/11/02 12:41:57;;;;;;;0.40;0.40;;;;;;;19.42;40.47;97471.47;5110404;27;41191;-76
2021/11/02 12:44:28;;;;;;;0.60;0.60;;;;;;;19.09;41.59;97494.31;5109586;27;38567;-78
2021/11/02 12:46:58;;;;;;;1.43;0.70;;;;;;;18.54;42.10;97492.75;5110526;27;40722;-78
2021/11/02 12:49:38;;;;;;;0.50;0.50;;;;;;;18.03;43.84;97492.41;5127850;27;44363;-77
2021/11/02 12:52:07;;;;;;;0.40;0.40;;;;;;;17.47;45.51;97480.88;5109658;27;41396;-79
2021/11/02 12:54:37;;;;;;;0.50;0.50;;;;;;;16.92;46.95;97483.53;5127406;27;40447;-80
2021/11/02 12:57:09;;;;;;;0.60;0.57;;;;;;;15.97;50.84;97447.56;5108430;27;40863;-77
2021/11/02 12:59:46;;;;;;;0.50;0.50;;;;;;;15.36;52.48;97458.50;5110962;27;41724;-78
2021/11/02 13:02:21;;;;;;;0.30;0.30;;;;;;;14.86;55.16;97450.38;5110315;27;43117;-81
2021/11/02 13:04:58;;;;;;;0.40;0.37;;;;;;;14.45;55.88;97449.28;5125770;27;39406;-77
2021/11/02 13:07:28;;;;;;;0.30;0.30;;;;;;;13.98;56.10;97434.34;5126787;27;42085;-79
2021/11/02 13:09:57;;;;;;;0.30;0.30;;;;;;;13.81;57.94;97440.50;5110709;27;43001;-78
2021/11/02 13:12:26;;;;;;;0.40;0.40;;;;;;;13.50;59.16;97433.81;5110562;27;41392;-80
2021/11/02 13:15:02;;;;;;;1.57;0.50;;;;;;;13.34;60.75;97445.13;5131473;27;39808;-79
2021/11/02 13:17:41;;;;;;;2.23;0.60;;;;;;;13.10;62.30;97442.97;5132256;27;42113;-80
2021/11/02 13:20:12;;;;;;;0.60;0.60;;;;;;;12.92;63.06;97455.31;5131249;27;42163;-80
2021/11/02 13:22:51;;;;;;;0.40;0.40;;;;;;;12.76;63.39;97439.13;5130050;27;42525;-78
2021/11/02 13:25:23;;;;;;;0.40;0.40;;;;;;;12.74;63.82;97459.69;5144936;27;38884;-78
2021/11/02 13:27:54;;;;;;;0.40;0.40;;;;;;;12.53;64.97;97447.44;5131661;27;41739;-77
2021/11/02 13:30:34;;;;;;;0.50;0.50;;;;;;;12.34;65.86;97443.97;5112693;27;42053;-80
2021/11/02 13:33:07;;;;;;;0.50;0.50;;;;;;;12.41;66.53;97461.84;5114629;27;42902;-79
2021/11/02 13:35:51;;;;;;;0.33;0.33;;;;;;;12.37;66.41;97452.47;5131015;27;40223;-78
2021/11/02 13:38:30;;;;;;;0.30;0.30;;;;;;;12.45;65.93;97468.56;5126961;27;41696;-79
2021/11/02 13:40:59;;;;;;;0.83;0.83;;;;;;;12.38;67.52;97462.13;5131002;27;43374;-77
2021/11/02 13:43:32;;;;;;;0.20;0.20;;;;;;;12.29;66.78;97468.28;5131480;27;42451;-78
2021/11/02 13:46:00;;;;;;;0.33;0.33;;;;;;;12.18;67.18;97465.78;5151981;27;39214;-79
2021/11/02 13:48:30;;;;;;;1.17;0.50;;;;;;;12.14;68.17;97464.38;5121185;27;40561;-79
2021/11/02 13:51:00;;;;;;;0.33;0.33;;;;;;;12.04;68.11;97464.38;5136008;27;43358;-78
2021/11/02 13:53:32;;;;;;;0.47;0.40;;;;;;;12.00;68.34;97472.72;5139087;27;42513;-78
2021/11/02 13:56:01;;;;;;;0.70;0.50;;;;;;;11.93;68.91;97469.81;5117332;27;39304;-77
2021/11/02 13:58:29;;;;;;;0.37;0.37;;;;;;;11.91;68.43;97476.22;5137676;27;40942;-77
2021/11/02 14:00:57;;;;;;;0.30;0.30;;;;;;;11.90;68.82;97478.03;5129800;27;41625;-78
2021/11/02 14:03:30;;;;;;;0.30;0.30;;;;;;;11.86;68.52;97476.66;5132129;27;43476;-78
2021/11/02 14:06:02;;;;;;;0.63;0.63;;;;;;;11.87;68.46;97473.84;5113461;27;40926;-79
2021/11/02 14:08:29;;;;;;;0.40;0.40;;;;;;;11.85;68.70;97477.63;5113171;27;41981;-77
2021/11/02 14:10:59;;;;;;;0.40;0.40;;;;;;;11.78;68.90;97479.97;5130914;27;43809;-78
2021/11/02 14:13:37;;;;;;;0.40;0.40;;;;;;;11.75;68.81;97479.38;5130341;27;42360;-77
2021/11/02 14:16:05;;;;;;;0.30;0.30;;;;;;;11.67;68.55;97482.72;5110158;27;39066;-78
2021/11/02 14:18:34;;;;;;;1.70;0.30;;;;;;;11.54;69.11;97468.88;5131531;27;42400;-79
2021/11/02 14:21:03;;;;;;;0.40;0.40;;;;;;;11.52;69.63;97468.16;5129589;27;41688;-78
2021/11/02 14:23:38;;;;;;;0.30;0.30;;;;;;;11.56;69.45;97484.63;5112193;27;41138;-78
2021/11/02 14:26:23;;;;;;;0.40;0.40;;;;;;;11.52;69.73;97484.06;5129388;27;39798;-77
2021/11/02 14:28:52;;;;;;;0.30;0.30;;;;;;;11.42;69.07;97472.59;5125709;27;42131;-79
2021/11/02 14:31:48;;;;;;;0.40;0.40;;;;;;;11.47;69.90;97483.66;5110573;27;42959;-78
2021/11/02 14:34:47;;;;;;;0.53;0.50;;;;;;;11.40;70.18;97477.19;5105336;27;41154;-77
2021/11/02 14:37:19;;;;;;;0.30;0.30;;;;;;;11.41;70.10;97470.91;5127805;27;40950;-79
2021/11/02 14:39:57;;;;;;;0.53;0.53;;;;;;;11.31;70.82;97459.44;5112786;27;40983;-77
2021/11/02 14:42:44;;;;;;;0.43;0.43;;;;;;;11.34;70.69;97472.44;5109769;27;41781;-77
2021/11/02 14:45:13;;;;;;;0.30;0.30;;;;;;;11.28;70.41;97471.16;5129274;27;42035;-79
2021/11/02 14:47:41;;;;;;;0.30;0.30;;;;;;;11.24;70.77;97480.38;5128816;27;40062;-77
2021/11/02 14:50:32;;;;;;;0.50;0.50;;;;;;;11.22;70.84;97470.88;5112233;27;42098;-80
2021/11/02 14:53:15;;;;;;;0.50;0.50;;;;;;;11.14;70.93;97464.41;5130371;27;42295;-79
2021/11/02 14:55:51;;;;;;;0.80;0.70;;;;;;;11.19;71.16;97468.47;5130409;27;41973;-78
2021/11/02 14:58:41;;;;;;;0.60;0.60;;;;;;;11.16;70.91;97472.22;5112352;27;40060;-79
2021/11/02 15:01:10;;;;;;;2.30;0.53;;;;;;;11.01;71.14;97463.78;5111562;27;43086;-79
2021/11/02 15:03:39;;;;;;;0.40;0.40;;;;;;;11.02;71.24;97478.72;5130879;27;41573;-79
2021/11/02 15:06:09;;;;;;;0.40;0.40;;;;;;;11.01;71.01;97474.38;5129985;27;42633;-78
2021/11/02 15:08:41;;;;;;;0.30;0.30;;;;;;;10.98;70.69;97469.38;5130559;27;38800;-78
2021/11/02 15:11:10;;;;;;;0.30;0.30;;;;;;;10.93;70.96;97482.16;5128140;27;42516;-78
2021/11/02 15:13:39;;;;;;;0.40;0.40;;;;;;;10.90;71.28;97474.47;5129499;27;41666;-79
2021/11/02 15:16:07;;;;;;;0.30;0.30;;;;;;;10.88;71.22;97479.06;5129839;27;42704;-78
2021/11/02 15:18:45;;;;;;;0.40;0.40;;;;;;;10.90;71.58;97479.75;5131713;27;39914;-79
2021/11/02 15:21:17;;;;;;;1.17;0.40;;;;;;;10.93;71.03;97482.16;5111379;27;42046;-79
2021/11/02 15:23:48;;;;;;;0.20;0.20;;;;;;;10.94;70.85;97478.53;5128979;27;42969;-78
2021/11/02 15:26:17;;;;;;;0.30;0.30;;;;;;;10.95;71.55;97490.81;5130030;27;42635;-78
2021/11/02 15:28:46;;;;;;;0.40;0.40;;;;;;;10.95;71.32;97484.69;5128551;27;40324;-79
2021/11/02 15:31:16;;;;;;;0.33;0.33;;;;;;;10.95;71.00;97490.81;5110888;27;40946;-79
2021/11/02 15:33:44;;;;;;;0.30;0.30;;;;;;;10.97;71.18;97483.59;5112685;27;43699;-81
2021/11/02 15:36:18;;;;;;;0.30;0.30;;;;;;;10.95;71.39;97484.69;5125761;27;42128;-78
2021/11/02 15:38:59;;;;;;;0.67;0.47;;;;;;;10.96;71.56;97487.19;5130436;27;40078;-79
2021/11/02 15:41:27;;;;;;;1.37;0.50;;;;;;;10.96;71.11;97489.84;5126907;27;42442;-80
2021/11/02 15:43:58;;;;;;;0.40;0.40;;;;;;;10.97;71.45;97490.69;5128997;27;42342;-79
2021/11/02 15:46:29;;;;;;;0.50;0.50;;;;;;;10.96;71.65;97492.50;5129165;27;41890;-81
2021/11/02 15:48:58;;;;;;;1.70;0.73;;;;;;;10.77;71.30;97466.75;5129571;27;38786;-78
2021/11/02 15:51:30;;;;;;;0.40;0.40;;;;;;;10.92;71.24;97499.03;5110440;27;40562;-80
2021/11/02 15:54:00;;;;;;;0.40;0.40;;;;;;;10.87;71.31;97489.81;5125902;27;41688;-81
2021/11/02 15:56:28;;;;;;;0.77;0.50;;;;;;;10.86;71.71;97491.63;5126655;27;41143;-78
2021/11/02 15:58:58;;;;;;;0.40;0.40;;;;;;;10.83;71.82;97491.03;5110423;27;40146;-79
2021/11/02 16:01:45;;;;;;;0.80;0.57;;;;;;;10.80;71.90;97482.38;5111190;27;40845;-77
2021/11/02 16:04:15;;;;;;;0.53;0.53;;;;;;;10.77;71.81;97481.78;5114573;27;41953;-79
2021/11/02 16:07:00;;;;;;;0.43;0.43;;;;;;;10.71;71.87;97488.44;5130159;27;42428;-77
2021/11/02 16:09:54;;;;;;;0.80;0.60;;;;;;;10.66;72.08;97477.41;5129764;27;40105;-81
2021/11/02 16:12:29;;;;;;;0.67;0.50;;;;;;;10.56;72.69;97495.03;5125224;27;40647;-79
2021/11/02 16:15:00;;;;;;;0.47;0.47;;;;;;;10.45;73.11;97495.09;5129938;27;43672;-81
2021/11/02 16:17:29;;;;;;;0.50;0.50;;;;;;;10.34;72.88;97493.34;5111319;27;42347;-79
2021/11/02 16:19:59;;;;;;;0.70;0.70;;;;;;;10.30;73.05;97494.56;5112882;27;38979;-79
2021/11/02 16:22:27;;;;;;;0.50;0.50;;;;;;;10.27;73.34;97501.91;5111976;27;40736;-78
2021/11/02 16:25:06;;;;;;;0.47;0.47;;;;;;;10.26;73.63;97498.41;5128825;27;43764;-76
2021/11/02 16:27:34;;;;;;;0.40;0.40;;;;;;;10.23;73.55;97493.41;5128350;27;42965;-80
2021/11/02 16:30:16;;;;;;;0.60;0.37;;;;;;;10.28;73.38;97499.13;5130430;27;39950;-81
2021/11/02 16:32:47;;;;;;;0.50;0.50;;;;;;;10.25;74.36;97506.50;5128412;27;40574;-78
2021/11/02 16:35:31;;;;;;;0.70;0.43;;;;;;;10.24;73.95;97508.31;5128652;27;42747;-79
2021/11/02 16:37:58;;;;;;;0.50;0.50;;;;;;;10.06;73.85;97484.19;5095019;27;41437;-76
2021/11/02 16:40:28;;;;;;;0.93;0.60;;;;;;;10.03;74.23;97494.16;5111254;27;38659;-79
2021/11/02 16:42:59;;;;;;;0.60;0.60;;;;;;;10.10;74.23;97513.88;5128213;27;41728;-78
2021/11/02 16:45:33;;;;;;;0.43;0.43;;;;;;;10.09;74.22;97526.25;5129390;27;42884;-79
2021/11/02 16:48:03;;;;;;;0.50;0.50;;;;;;;9.77;74.34;97474.31;5093335;27;41374;-77
2021/11/02 16:50:33;;;;;;;1.03;0.83;;;;;;;10.00;74.34;97524.38;5114928;27;40489;-76
2021/11/02 16:53:16;;;;;;;0.53;0.53;;;;;;;9.92;74.71;97526.78;5113745;27;41938;-77
2021/11/02 16:55:46;;;;;;;0.60;0.60;;;;;;;9.60;74.74;97491.53;5132863;27;41988;-77
2021/11/02 16:58:26;;;;;;;0.50;0.50;;;;;;;9.77;75.58;97524.53;5131864;27;41996;-82
2021/11/02 17:01:15;;;;;;;2.47;0.73;;;;;;;9.88;75.60;97540.38;5132954;27;40062;-78
2021/11/02 17:03:44;;;;;;;0.80;0.50;;;;;;;9.82;75.66;97541.69;5114974;27;40804;-78
2021/11/02 17:06:14;;;;;;;0.40;0.40;;;;;;;9.80;75.83;97537.50;5114634;27;42401;-78
2021/11/02 17:09:11;;;;;;;0.80;0.80;;;;;;;9.81;76.04;97536.53;5115470;27;41849;-79
2021/11/02 17:11:50;;;;;;;0.70;0.70;;;;;;;9.70;75.85;97517.09;5097450;27;38908;-82
2021/11/02 17:14:18;;;;;;;0.70;0.70;;;;;;;9.68;75.76;97519.00;5115323;27;41190;-78
2021/11/02 17:16:54;;;;;;;0.53;0.53;;;;;;;9.86;75.79;97531.72;5130611;27;42351;-79
2021/11/02 17:19:22;;;;;;;0.60;0.60;;;;;;;9.97;75.68;97545.75;5114638;27;42341;-80
2021/11/02 17:21:52;;;;;;;0.50;0.50;;;;;;;10.02;75.58;97546.22;5130936;27;40847;-79
2021/11/02 17:24:20;;;;;;;0.77;0.77;;;;;;;10.06;75.53;97549.47;5131168;27;41912;-79
2021/11/02 17:26:50;;;;;;;0.60;0.60;;;;;;;10.00;75.69;97539.41;5131118;27;43102;-79
2021/11/02 17:29:18;;;;;;;0.70;0.67;;;;;;;9.93;76.30;97535.53;5132238;27;42723;-77
2021/11/02 17:31:47;;;;;;;0.93;0.60;;;;;;;9.81;76.64;97518.88;5131254;27;39782;-80
2021/11/02 17:34:22;;;;;;;0.93;0.93;;;;;;;9.96;76.36;97549.38;5130624;27;40997;-76
2021/11/02 17:37:05;;;;;;;0.60;0.60;;;;;;;9.98;76.18;97546.59;5131228;27;42737;-76
2021/11/02 17:39:37;;;;;;;1.20;0.57;;;;;;;9.94;76.36;97534.59;5131475;27;42072;-77
2021/11/02 17:42:08;;;;;;;0.73;0.63;;;;;;;9.99;76.54;97543.00;5130908;27;38786;-75
2021/11/02 17:44:37;;;;;;;0.80;0.80;;;;;;;9.98;76.49;97546.59;5131591;27;41070;-76
2021/11/02 17:47:09;;;;;;;0.67;0.63;;;;;;;9.97;77.34;97552.84;5129439;27;41553;-76
2021/11/02 17:49:38;;;;;;;0.80;0.80;;;;;;;9.85;77.21;97537.97;5131798;27;42345;-75
2021/11/02 17:52:06;;;;;;;1.07;0.60;;;;;;;9.80;77.44;97548.91;5131426;27;39664;-83
2021/11/02 17:54:35;;;;;;;0.77;0.50;;;;;;;9.59;77.19;97530.34;5114437;27;42269;-80
2021/11/02 17:57:02;;;;;;;0.60;0.60;;;;;;;9.60;77.79;97547.88;5131594;27;43383;-78
2021/11/02 17:59:32;;;;;;;1.00;0.73;;;;;;;9.57;77.49;97560.47;5131209;27;41666;-78
2021/11/02 18:02:04;;;;;;;1.33;0.83;;;;;;;9.47;77.89;97562.16;5119793;27;40916;-78
2021/11/02 18:04:34;;;;;;;1.20;1.10;;;;;;;9.39;78.02;97565.44;5115572;27;40231;-84
2021/11/02 18:07:04;;;;;;;1.10;1.00;;;;;;;9.32;78.16;97554.47;5113772;27;41754;-79
2021/11/02 18:09:34;;;;;;;1.20;0.90;;;;;;;9.30;77.89;97566.97;5131795;27;43822;-80
2021/11/02 18:12:02;;;;;;;0.80;0.70;;;;;;;9.16;78.24;97550.50;5129412;27;38959;-81
2021/11/02 18:14:32;;;;;;;0.60;0.60;;;;;;;9.16;78.53;97553.97;5114745;27;40511;-82
2021/11/02 18:17:01;;;;;;;0.53;0.53;;;;;;;9.24;78.48;97566.63;5131336;27;43817;-82
2021/11/02 18:19:29;;;;;;;0.53;0.53;;;;;;;9.24;78.09;97575.38;5109549;27;41194;-78
2021/11/02 18:21:59;;;;;;;1.03;0.70;;;;;;;9.09;78.02;97567.78;5114601;27;38710;-79
2021/11/02 18:24:28;;;;;;;0.60;0.60;;;;;;;9.13;78.05;97587.72;5101287;27;42104;-80
2021/11/02 18:26:55;;;;;;;0.80;0.67;;;;;;;8.96;77.70;97570.53;5130981;27;42834;-79
2021/11/02 18:29:23;;;;;;;1.20;0.90;;;;;;;8.99;77.66;97589.63;5128019;27;41700;-78
2021/11/02 18:31:53;;;;;;;1.30;0.80;;;;;;;8.90;78.04;97579.75;5111780;27;38901;-78
2021/11/02 18:34:21;;;;;;;1.67;0.70;;;;;;;8.99;77.81;97594.91;5111756;27;42604;-78
2021/11/02 18:36:50;;;;;;;0.93;0.70;;;;;;;8.90;77.88;97574.47;5130485;27;43699;-81
2021/11/02 18:39:18;;;;;;;1.43;1.10;;;;;;;8.84;78.03;97569.66;5128787;27;42973;-77
2021/11/02 18:41:57;;;;;;;0.53;0.53;;;;;;;8.95;78.30;97587.31;5097155;27;39979;-79
2021/11/02 18:44:25;;;;;;;0.77;0.43;;;;;;;8.94;78.01;97581.19;5112118;27;40691;-81
2021/11/02 18:46:54;;;;;;;0.70;0.70;;;;;;;9.09;77.63;97607.41;5127333;27;42464;-79
2021/11/02 18:49:23;;;;;;;0.77;0.60;;;;;;;8.99;78.31;97597.56;5112874;27;42252;-80
2021/11/02 18:51:54;;;;;;;0.70;0.70;;;;;;;9.08;78.58;97613.63;5109869;27;40027;-79
2021/11/02 18:54:22;;;;;;;0.60;0.60;;;;;;;9.07;78.71;97614.59;5111545;27;42436;-81
2021/11/02 18:56:52;;;;;;;0.67;0.60;;;;;;;9.10;78.35;97606.44;5127360;27;43950;-80
2021/11/02 18:59:22;;;;;;;0.73;0.70;;;;;;;9.14;78.25;97603.47;5112501;27;41950;-79
2021/11/02 19:01:49;;;;;;;2.43;1.20;;;;;;;9.20;78.31;97602.13;5110590;27;38879;-79
2021/11/02 19:07:01;;;;;;;0.70;0.70;;;;;;;9.31;77.77;97599.50;5112004;27;42427;-81
2021/11/02 19:09:29;;;;;;;1.13;0.90;;;;;;;9.39;77.90;97610.34;5111563;27;41338;-78
2021/11/02 19:11:57;;;;;;;1.00;0.70;;;;;;;9.39;77.77;97607.69;5129148;27;39201;-81
2021/11/02 19:14:24;;;;;;;1.10;0.80;;;;;;;9.25;77.82;97587.63;5129691;27;41844;-80
2021/11/02 19:16:53;;;;;;;0.60;0.60;;;;;;;9.39;77.78;97606.84;5130501;27;44190;-82
2021/11/02 19:19:22;;;;;;;0.70;0.50;;;;;;;9.45;77.57;97617.78;5112706;27;41482;-79
2021/11/02 19:21:49;;;;;;;0.73;0.73;;;;;;;9.44;77.52;97615.25;5113026;27;38824;-80
2021/11/02 19:24:17;;;;;;;0.50;0.50;;;;;;;9.34;77.74;97599.28;5113042;27;40513;-76
2021/11/02 19:26:45;;;;;;;1.10;0.70;;;;;;;9.39;77.53;97602.41;5112724;27;42144;-79
2021/11/02 19:29:12;;;;;;;0.57;0.57;;;;;;;9.42;77.61;97612.72;5130083;27;42190;-79
2021/11/02 19:31:41;;;;;;;0.87;0.80;;;;;;;9.54;76.94;97630.25;5112415;27;39453;-81
2021/11/02 19:34:09;;;;;;;0.67;0.67;;;;;;;9.56;77.19;97635.44;5112493;27;41020;-78
2021/11/02 19:36:38;;;;;;;1.43;0.60;;;;;;;9.39;77.27;97612.97;5129574;27;42033;-78
2021/11/02 19:39:06;;;;;;;0.63;0.57;;;;;;;9.45;77.16;97628.34;5112317;27;41147;-77
2021/11/02 19:41:33;;;;;;;0.57;0.50;;;;;;;9.55;77.05;97634.59;5129577;27;38959;-83
2021/11/02 19:44:01;;;;;;;0.50;0.50;;;;;;;9.56;77.16;97641.56;5130996;27;42772;-80
2021/11/02 19:46:29;;;;;;;0.50;0.50;;;;;;;9.56;77.03;97641.56;5129913;27;42790;-80
2021/11/02 19:48:56;;;;;;;0.60;0.50;;;;;;;9.58;76.73;97638.81;5112122;27;41876;-80
2021/11/02 19:51:24;;;;;;;0.40;0.40;;;;;;;9.45;76.80;97628.34;5129679;27;39245;-79
2021/11/02 19:53:53;;;;;;;0.60;0.60;;;;;;;9.54;76.93;97643.47;5111992;27;42125;-81
2021/11/02 19:56:21;;;;;;;0.60;0.60;;;;;;;9.48;76.91;97643.13;5129768;27;42817;-80
2021/11/02 19:58:49;;;;;;;0.87;0.87;;;;;;;9.43;76.78;97640.84;5129684;27;43126;-79
2021/11/02 20:01:17;;;;;;;0.50;0.50;;;;;;;9.49;77.00;97650.94;5112273;27;40402;-80
2021/11/02 20:03:47;;;;;;;0.60;0.60;;;;;;;9.43;76.92;97629.41;5129511;27;42029;-80
2021/11/02 20:06:17;;;;;;;0.60;0.60;;;;;;;9.34;76.66;97633.63;5129944;27;42800;-81
2021/11/02 20:08:48;;;;;;;0.60;0.50;;;;;;;9.43;77.06;97651.41;5129657;27;43128;-78
2021/11/02 20:11:19;;;;;;;0.77;0.60;;;;;;;9.30;76.64;97634.81;5128621;27;40144;-78
2021/11/02 20:13:47;;;;;;;0.40;0.40;;;;;;;9.16;76.79;97630.56;5130305;27;40891;-79
2021/11/02 20:16:17;;;;;;;1.23;0.70;;;;;;;9.12;77.01;97646.78;5111691;27;43290;-80
2021/11/02 20:18:59;;;;;;;0.60;0.60;;;;;;;8.97;77.34;97652.28;5112140;27;41046;-80
2021/11/02 20:21:28;;;;;;;0.60;0.60;;;;;;;8.85;77.50;97655.81;5106963;27;40728;-79
2021/11/02 20:23:57;;;;;;;0.77;0.77;;;;;;;8.74;77.53;97653.16;5111526;27;41048;-77
2021/11/02 20:26:30;;;;;;;0.90;0.80;;;;;;;8.56;78.02;97646.56;5125867;27;41690;-84
2021/11/02 20:29:00;;;;;;;0.87;0.80;;;;;;;8.53;78.20;97660.00;5111918;27;41538;-83
2021/11/02 20:31:28;;;;;;;0.73;0.70;;;;;;;8.52;77.99;97671.53;5128155;27;39722;-82
2021/11/02 20:33:56;;;;;;;1.00;0.80;;;;;;;8.24;78.60;97630.44;5111556;27;41493;-89
2021/11/02 20:36:27;;;;;;;0.70;0.60;;;;;;;8.41;78.53;97661.72;5092430;27;41749;-82
2021/11/02 20:38:59;;;;;;;1.13;0.80;;;;;;;8.39;78.61;97668.09;5127236;27;42395;-78
2021/11/02 20:41:30;;;;;;;0.73;0.73;;;;;;;8.22;78.74;97649.00;5109784;27;39083;-80
2021/11/02 20:44:02;;;;;;;0.60;0.60;;;;;;;8.27;78.51;97664.50;5126546;27;42119;-79
2021/11/02 20:46:32;;;;;;;0.97;0.90;;;;;;;8.20;78.75;97664.09;5127290;27;43121;-85
2021/11/02 20:49:03;;;;;;;0.73;0.73;;;;;;;8.23;78.92;97684.97;5110813;27;41219;-83
2021/11/02 20:51:31;;;;;;;0.60;0.60;;;;;;;8.19;78.99;97662.41;5108171;27;39205;-79
2021/11/02 20:53:59;;;;;;;0.50;0.50;;;;;;;8.36;78.86;97671.78;5125870;27;42399;-78